sensor_id;sensor_type;location;lat;lon;timestamp;temperature;humidity
69464;DHT22;56665;41.106;16.688;2022-12-24T00:00:32;10.70;83.57
69464;DHT22;56665;41.106;16.688;2022-12-24T00:03:36;10.69;83.53
69464;DHT22;56665;41.106;16.688;2022-12-24T00:06:40;10.69;83.60
69464;DHT22;56665;41.106;16.688;2022-12-24T00:09:44;10.70;83.81
69464;DHT22;56665;41.106;16.688;2022-12-24T00:12:47;10.72;83.70
69464;DHT22;56665;41.106;16.688;2022-12-24T00:15:51;10.76;83.79
69464;DHT22;56665;41.106;16.688;2022-12-24T00:18:56;10.81;84.19
69464;DHT22;56665;41.106;16.688;2022-12-24T00:22:00;10.81;83.67
69464;DHT22;56665;41.106;16.688;2022-12-24T00:25:04;10.83;83.68
69464;DHT22;56665;41.106;16.688;2022-12-24T00:28:10;10.86;83.58
69464;DHT22;56665;41.106;16.688;2022-12-24T00:31:15;10.87;83.55
69464;DHT22;56665;41.106;16.688;2022-12-24T00:34:22;10.81;83.67
69464;DHT22;56665;41.106;16.688;2022-12-24T00:37:25;10.83;83.81
69464;DHT22;56665;41.106;16.688;2022-12-24T00:40:30;10.88;83.76
69464;DHT22;56665;41.106;16.688;2022-12-24T00:43:34;10.84;83.80
69464;DHT22;56665;41.106;16.688;2022-12-24T00:46:39;10.84;83.88
69464;DHT22;56665;41.106;16.688;2022-12-24T00:49:43;10.81;83.86
69464;DHT22;56665;41.106;16.688;2022-12-24T00:52:47;10.83;83.94
69464;DHT22;56665;41.106;16.688;2022-12-24T00:55:51;10.81;84.01
69464;DHT22;56665;41.106;16.688;2022-12-24T00:58:55;10.80;84.01
69464;DHT22;56665;41.106;16.688;2022-12-24T01:01:58;10.80;83.99
69464;DHT22;56665;41.106;16.688;2022-12-24T01:05:03;10.86;84.06
69464;DHT22;56665;41.106;16.688;2022-12-24T01:08:14;10.84;84.12
69464;DHT22;56665;41.106;16.688;2022-12-24T01:11:17;10.86;84.10
69464;DHT22;56665;41.106;16.688;2022-12-24T01:14:25;10.87;83.94
69464;DHT22;56665;41.106;16.688;2022-12-24T01:17:35;10.86;83.93
69464;DHT22;56665;41.106;16.688;2022-12-24T01:20:39;10.84;83.94
69464;DHT22;56665;41.106;16.688;2022-12-24T01:23:43;10.81;83.77
69464;DHT22;56665;41.106;16.688;2022-12-24T01:26:48;10.76;83.81
69464;DHT22;56665;41.106;16.688;2022-12-24T01:29:55;10.73;83.92
69464;DHT22;56665;41.106;16.688;2022-12-24T01:32:58;10.69;84.13
69464;DHT22;56665;41.106;16.688;2022-12-24T01:36:04;10.66;84.06
69464;DHT22;56665;41.106;16.688;2022-12-24T01:39:08;10.63;84.26
69464;DHT22;56665;41.106;16.688;2022-12-24T01:42:17;10.62;84.33
69464;DHT22;56665;41.106;16.688;2022-12-24T01:46:02;10.60;84.33
69464;DHT22;56665;41.106;16.688;2022-12-24T01:49:10;10.60;84.31
69464;DHT22;56665;41.106;16.688;2022-12-24T01:52:19;10.62;84.43
69464;DHT22;56665;41.106;16.688;2022-12-24T01:55:25;10.57;84.40
69464;DHT22;56665;41.106;16.688;2022-12-24T01:58:29;10.57;84.59
69464;DHT22;56665;41.106;16.688;2022-12-24T02:01:33;10.55;84.72
69464;DHT22;56665;41.106;16.688;2022-12-24T02:04:50;10.59;84.84
69464;DHT22;56665;41.106;16.688;2022-12-24T02:07:57;10.57;84.65
69464;DHT22;56665;41.106;16.688;2022-12-24T02:11:11;10.56;84.71
69464;DHT22;56665;41.106;16.688;2022-12-24T02:14:16;10.55;84.75
69464;DHT22;56665;41.106;16.688;2022-12-24T02:26:16;10.57;85.11
69464;DHT22;56665;41.106;16.688;2022-12-24T02:32:23;10.60;85.14
69464;DHT22;56665;41.106;16.688;2022-12-24T02:36:04;10.56;84.91
69464;DHT22;56665;41.106;16.688;2022-12-24T02:39:18;10.55;85.26
69464;DHT22;56665;41.106;16.688;2022-12-24T02:42:31;10.52;85.15
69464;DHT22;56665;41.106;16.688;2022-12-24T02:45:40;10.49;85.15
69464;DHT22;56665;41.106;16.688;2022-12-24T02:48:47;10.46;85.35
69464;DHT22;56665;41.106;16.688;2022-12-24T02:51:51;10.46;85.53
69464;DHT22;56665;41.106;16.688;2022-12-24T02:54:56;10.48;85.72
69464;DHT22;56665;41.106;16.688;2022-12-24T02:58:18;10.50;85.67
69464;DHT22;56665;41.106;16.688;2022-12-24T03:11:24;10.49;85.87
69464;DHT22;56665;41.106;16.688;2022-12-24T03:14:29;10.56;85.84
69464;DHT22;56665;41.106;16.688;2022-12-24T03:17:37;10.59;85.81
69464;DHT22;56665;41.106;16.688;2022-12-24T03:21:06;10.65;85.58
69464;DHT22;56665;41.106;16.688;2022-12-24T03:24:13;10.69;85.46
69464;DHT22;56665;41.106;16.688;2022-12-24T03:27:17;10.75;85.42
69464;DHT22;56665;41.106;16.688;2022-12-24T03:30:21;10.76;85.15
69464;DHT22;56665;41.106;16.688;2022-12-24T03:33:25;10.79;85.08
69464;DHT22;56665;41.106;16.688;2022-12-24T03:36:29;10.81;84.80
69464;DHT22;56665;41.106;16.688;2022-12-24T03:39:33;10.77;84.77
69464;DHT22;56665;41.106;16.688;2022-12-24T03:42:38;10.75;84.56
69464;DHT22;56665;41.106;16.688;2022-12-24T03:45:41;10.69;84.57
69464;DHT22;56665;41.106;16.688;2022-12-24T03:48:45;10.65;84.66
69464;DHT22;56665;41.106;16.688;2022-12-24T03:51:49;10.62;84.63
69464;DHT22;56665;41.106;16.688;2022-12-24T03:54:52;10.60;84.63
69464;DHT22;56665;41.106;16.688;2022-12-24T03:57:56;10.59;84.36
69464;DHT22;56665;41.106;16.688;2022-12-24T04:01:00;10.55;84.43
69464;DHT22;56665;41.106;16.688;2022-12-24T04:04:04;10.53;84.49
69464;DHT22;56665;41.106;16.688;2022-12-24T04:07:09;10.53;84.49
69464;DHT22;56665;41.106;16.688;2022-12-24T04:10:15;10.52;84.23
69464;DHT22;56665;41.106;16.688;2022-12-24T04:13:20;10.60;84.63
69464;DHT22;56665;41.106;16.688;2022-12-24T04:16:24;10.63;84.93
69464;DHT22;56665;41.106;16.688;2022-12-24T04:19:29;10.72;84.46
69464;DHT22;56665;41.106;16.688;2022-12-24T04:22:34;10.80;84.17
69464;DHT22;56665;41.106;16.688;2022-12-24T04:25:37;10.94;83.84
69464;DHT22;56665;41.106;16.688;2022-12-24T04:28:41;11.03;83.65
69464;DHT22;56665;41.106;16.688;2022-12-24T04:31:46;11.14;83.00
69464;DHT22;56665;41.106;16.688;2022-12-24T04:34:49;11.19;82.10
69464;DHT22;56665;41.106;16.688;2022-12-24T04:37:55;11.21;82.18
69464;DHT22;56665;41.106;16.688;2022-12-24T04:41:07;11.21;81.99
69464;DHT22;56665;41.106;16.688;2022-12-24T04:44:11;11.17;82.07
69464;DHT22;56665;41.106;16.688;2022-12-24T04:47:14;11.12;82.31
69464;DHT22;56665;41.106;16.688;2022-12-24T04:50:18;11.12;82.79
69464;DHT22;56665;41.106;16.688;2022-12-24T04:53:22;11.14;82.67
69464;DHT22;56665;41.106;16.688;2022-12-24T04:56:29;11.12;82.53
69464;DHT22;56665;41.106;16.688;2022-12-24T04:59:33;11.12;82.20
69464;DHT22;56665;41.106;16.688;2022-12-24T05:02:38;11.12;82.15
69464;DHT22;56665;41.106;16.688;2022-12-24T05:05:42;11.14;82.06
69464;DHT22;56665;41.106;16.688;2022-12-24T05:08:47;11.11;82.36
69464;DHT22;56665;41.106;16.688;2022-12-24T05:11:51;11.14;82.15
69464;DHT22;56665;41.106;16.688;2022-12-24T05:14:55;11.11;82.18
69464;DHT22;56665;41.106;16.688;2022-12-24T05:18:00;11.11;82.17
69464;DHT22;56665;41.106;16.688;2022-12-24T05:21:14;11.10;82.04
69464;DHT22;56665;41.106;16.688;2022-12-24T05:24:19;11.12;82.20
69464;DHT22;56665;41.106;16.688;2022-12-24T05:27:42;11.06;82.44
69464;DHT22;56665;41.106;16.688;2022-12-24T05:30:46;11.03;82.33
69464;DHT22;56665;41.106;16.688;2022-12-24T05:33:50;10.97;82.57
69464;DHT22;56665;41.106;16.688;2022-12-24T05:36:59;10.98;82.77
69464;DHT22;56665;41.106;16.688;2022-12-24T05:40:03;10.97;82.39
69464;DHT22;56665;41.106;16.688;2022-12-24T05:43:07;10.91;82.32
69464;DHT22;56665;41.106;16.688;2022-12-24T05:46:13;10.88;82.36
69464;DHT22;56665;41.106;16.688;2022-12-24T05:49:17;10.83;82.27
69464;DHT22;56665;41.106;16.688;2022-12-24T05:52:21;10.81;82.44
69464;DHT22;56665;41.106;16.688;2022-12-24T05:55:28;10.76;82.21
69464;DHT22;56665;41.106;16.688;2022-12-24T05:58:35;10.72;82.46
69464;DHT22;56665;41.106;16.688;2022-12-24T06:01:42;10.66;82.39
69464;DHT22;56665;41.106;16.688;2022-12-24T06:04:51;10.60;82.62
69464;DHT22;56665;41.106;16.688;2022-12-24T06:07:55;10.59;82.89
69464;DHT22;56665;41.106;16.688;2022-12-24T06:11:02;10.55;82.70
69464;DHT22;56665;41.106;16.688;2022-12-24T06:14:09;10.55;83.01
69464;DHT22;56665;41.106;16.688;2022-12-24T06:17:13;10.55;83.12
69464;DHT22;56665;41.106;16.688;2022-12-24T06:20:17;10.53;83.28
69464;DHT22;56665;41.106;16.688;2022-12-24T06:23:21;10.60;83.47
69464;DHT22;56665;41.106;16.688;2022-12-24T06:26:25;10.65;83.30
69464;DHT22;56665;41.106;16.688;2022-12-24T06:29:31;10.70;83.09
69464;DHT22;56665;41.106;16.688;2022-12-24T06:32:35;10.72;82.78
69464;DHT22;56665;41.106;16.688;2022-12-24T06:35:40;10.81;82.76
69464;DHT22;56665;41.106;16.688;2022-12-24T06:38:45;10.86;82.60
69464;DHT22;56665;41.106;16.688;2022-12-24T06:41:51;10.93;82.31
69464;DHT22;56665;41.106;16.688;2022-12-24T06:44:58;11.00;82.42
69464;DHT22;56665;41.106;16.688;2022-12-24T06:48:02;11.11;81.43
69464;DHT22;56665;41.106;16.688;2022-12-24T06:51:06;11.14;81.24
69464;DHT22;56665;41.106;16.688;2022-12-24T06:54:12;11.14;81.01
69464;DHT22;56665;41.106;16.688;2022-12-24T06:57:16;11.17;80.95
69464;DHT22;56665;41.106;16.688;2022-12-24T07:00:20;11.18;81.04
69464;DHT22;56665;41.106;16.688;2022-12-24T07:03:25;11.32;80.99
69464;DHT22;56665;41.106;16.688;2022-12-24T07:06:29;11.42;80.53
69464;DHT22;56665;41.106;16.688;2022-12-24T07:09:33;11.51;80.08
69464;DHT22;56665;41.106;16.688;2022-12-24T07:12:40;11.58;79.93
69464;DHT22;56665;41.106;16.688;2022-12-24T07:15:44;11.66;79.52
69464;DHT22;56665;41.106;16.688;2022-12-24T07:18:48;11.82;79.26
69464;DHT22;56665;41.106;16.688;2022-12-24T07:21:52;11.99;78.68
69464;DHT22;56665;41.106;16.688;2022-12-24T07:24:59;12.20;78.14
69464;DHT22;56665;41.106;16.688;2022-12-24T07:28:03;12.38;77.49
69464;DHT22;56665;41.106;16.688;2022-12-24T07:31:08;12.58;76.81
69464;DHT22;56665;41.106;16.688;2022-12-24T07:34:12;12.78;76.18
69464;DHT22;56665;41.106;16.688;2022-12-24T07:37:16;12.95;75.78
69464;DHT22;56665;41.106;16.688;2022-12-24T07:40:19;13.13;75.36
69464;DHT22;56665;41.106;16.688;2022-12-24T07:43:24;13.33;74.88
69464;DHT22;56665;41.106;16.688;2022-12-24T07:46:31;13.51;74.47
69464;DHT22;56665;41.106;16.688;2022-12-24T07:49:34;13.74;73.91
69464;DHT22;56665;41.106;16.688;2022-12-24T07:52:39;14.02;73.30
69464;DHT22;56665;41.106;16.688;2022-12-24T07:55:43;14.33;72.49
69464;DHT22;56665;41.106;16.688;2022-12-24T07:58:49;14.56;72.07
69464;DHT22;56665;41.106;16.688;2022-12-24T08:01:52;14.83;72.54
69464;DHT22;56665;41.106;16.688;2022-12-24T08:04:58;15.01;71.15
69464;DHT22;56665;41.106;16.688;2022-12-24T08:08:02;15.07;71.27
69464;DHT22;56665;41.106;16.688;2022-12-24T08:11:06;15.25;70.74
69464;DHT22;56665;41.106;16.688;2022-12-24T08:14:10;15.47;70.53
69464;DHT22;56665;41.106;16.688;2022-12-24T08:17:15;15.59;70.32
69464;DHT22;56665;41.106;16.688;2022-12-24T08:20:24;15.78;70.05
69464;DHT22;56665;41.106;16.688;2022-12-24T08:23:28;15.98;69.33
69464;DHT22;56665;41.106;16.688;2022-12-24T08:26:33;16.21;69.06
69464;DHT22;56665;41.106;16.688;2022-12-24T08:29:37;16.53;68.69
69464;DHT22;56665;41.106;16.688;2022-12-24T08:32:42;16.89;67.58
69464;DHT22;56665;41.106;16.688;2022-12-24T08:35:51;17.27;67.48
69464;DHT22;56665;41.106;16.688;2022-12-24T08:38:55;17.61;66.17
69464;DHT22;56665;41.106;16.688;2022-12-24T08:41:59;17.82;65.69
69464;DHT22;56665;41.106;16.688;2022-12-24T08:45:04;18.24;64.90
69464;DHT22;56665;41.106;16.688;2022-12-24T08:48:09;18.82;63.48
69464;DHT22;56665;41.106;16.688;2022-12-24T08:51:12;19.40;61.97
69464;DHT22;56665;41.106;16.688;2022-12-24T08:54:18;19.64;61.13
69464;DHT22;56665;41.106;16.688;2022-12-24T08:57:22;19.50;61.74
69464;DHT22;56665;41.106;16.688;2022-12-24T09:00:26;19.22;62.49
69464;DHT22;56665;41.106;16.688;2022-12-24T09:03:29;18.72;63.54
69464;DHT22;56665;41.106;16.688;2022-12-24T09:06:35;18.40;64.66
69464;DHT22;56665;41.106;16.688;2022-12-24T09:09:40;18.37;64.95
69464;DHT22;56665;41.106;16.688;2022-12-24T09:12:44;18.56;64.69
69464;DHT22;56665;41.106;16.688;2022-12-24T09:15:53;18.84;64.13
69464;DHT22;56665;41.106;16.688;2022-12-24T09:18:57;19.20;63.53
69464;DHT22;56665;41.106;16.688;2022-12-24T09:22:01;19.60;62.35
69464;DHT22;56665;41.106;16.688;2022-12-24T09:25:05;19.92;61.22
69464;DHT22;56665;41.106;16.688;2022-12-24T09:28:13;19.91;61.12
69464;DHT22;56665;41.106;16.688;2022-12-24T09:31:18;19.68;62.67
69464;DHT22;56665;41.106;16.688;2022-12-24T09:34:24;19.43;63.53
69464;DHT22;56665;41.106;16.688;2022-12-24T09:37:28;19.15;64.15
69464;DHT22;56665;41.106;16.688;2022-12-24T09:40:37;18.85;64.76
69464;DHT22;56665;41.106;16.688;2022-12-24T09:43:53;18.67;65.52
69464;DHT22;56665;41.106;16.688;2022-12-24T09:47:05;18.89;65.05
69464;DHT22;56665;41.106;16.688;2022-12-24T09:50:38;19.22;64.16
69464;DHT22;56665;41.106;16.688;2022-12-24T09:54:02;19.36;64.28
69464;DHT22;56665;41.106;16.688;2022-12-24T09:57:14;19.35;64.16
69464;DHT22;56665;41.106;16.688;2022-12-24T10:00:27;19.33;64.60
69464;DHT22;56665;41.106;16.688;2022-12-24T10:03:32;19.39;64.94
69464;DHT22;56665;41.106;16.688;2022-12-24T10:10:17;19.49;64.04
69464;DHT22;56665;41.106;16.688;2022-12-24T10:17:00;19.68;63.88
69464;DHT22;56665;41.106;16.688;2022-12-24T10:24:18;19.77;64.11
69464;DHT22;56665;41.106;16.688;2022-12-24T10:27:29;19.77;64.07
69464;DHT22;56665;41.106;16.688;2022-12-24T10:30:37;19.67;63.98
69464;DHT22;56665;41.106;16.688;2022-12-24T10:33:43;19.75;64.22
69464;DHT22;56665;41.106;16.688;2022-12-24T10:36:48;19.77;63.97
69464;DHT22;56665;41.106;16.688;2022-12-24T10:39:52;19.70;64.05
69464;DHT22;56665;41.106;16.688;2022-12-24T10:42:56;19.68;63.92
69464;DHT22;56665;41.106;16.688;2022-12-24T10:46:04;19.61;64.09
69464;DHT22;56665;41.106;16.688;2022-12-24T10:49:18;19.54;63.93
69464;DHT22;56665;41.106;16.688;2022-12-24T10:52:27;19.49;64.36
69464;DHT22;56665;41.106;16.688;2022-12-24T10:55:32;19.43;64.68
69464;DHT22;56665;41.106;16.688;2022-12-24T10:58:35;19.39;64.74
69464;DHT22;56665;41.106;16.688;2022-12-24T11:01:46;19.43;64.92
69464;DHT22;56665;41.106;16.688;2022-12-24T11:04:51;19.43;64.78
69464;DHT22;56665;41.106;16.688;2022-12-24T11:08:13;19.54;64.12
69464;DHT22;56665;41.106;16.688;2022-12-24T11:11:19;19.49;63.84
69464;DHT22;56665;41.106;16.688;2022-12-24T11:14:24;19.40;64.46
69464;DHT22;56665;41.106;16.688;2022-12-24T11:17:28;19.25;64.85
69464;DHT22;56665;41.106;16.688;2022-12-24T11:20:33;19.25;65.31
69464;DHT22;56665;41.106;16.688;2022-12-24T11:23:38;19.20;65.81
69464;DHT22;56665;41.106;16.688;2022-12-24T11:26:42;19.23;65.36
69464;DHT22;56665;41.106;16.688;2022-12-24T11:29:47;19.26;65.03
69464;DHT22;56665;41.106;16.688;2022-12-24T11:36:10;19.33;65.69
69464;DHT22;56665;41.106;16.688;2022-12-24T11:39:21;19.25;65.27
69464;DHT22;56665;41.106;16.688;2022-12-24T11:42:34;19.40;65.39
69464;DHT22;56665;41.106;16.688;2022-12-24T11:45:50;19.47;65.58
69464;DHT22;56665;41.106;16.688;2022-12-24T11:52:22;19.49;64.90
69464;DHT22;56665;41.106;16.688;2022-12-24T11:55:54;19.49;65.18
69464;DHT22;56665;41.106;16.688;2022-12-24T11:59:17;19.37;65.50
69464;DHT22;56665;41.106;16.688;2022-12-24T12:02:30;18.85;67.30
69464;DHT22;56665;41.106;16.688;2022-12-24T12:05:37;18.58;68.15
69464;DHT22;56665;41.106;16.688;2022-12-24T12:08:41;18.61;68.09
69464;DHT22;56665;41.106;16.688;2022-12-24T12:11:49;18.68;68.01
69464;DHT22;56665;41.106;16.688;2022-12-24T12:15:15;18.48;68.55
69464;DHT22;56665;41.106;16.688;2022-12-24T12:18:32;18.31;69.18
69464;DHT22;56665;41.106;16.688;2022-12-24T12:21:43;18.23;69.59
69464;DHT22;56665;41.106;16.688;2022-12-24T12:24:51;18.17;69.80
69464;DHT22;56665;41.106;16.688;2022-12-24T12:27:56;18.10;69.88
69464;DHT22;56665;41.106;16.688;2022-12-24T12:34:59;18.05;70.52
69464;DHT22;56665;41.106;16.688;2022-12-24T12:38:08;18.23;70.00
69464;DHT22;56665;41.106;16.688;2022-12-24T12:41:24;18.34;69.47
69464;DHT22;56665;41.106;16.688;2022-12-24T12:54:48;18.06;69.42
69464;DHT22;56665;41.106;16.688;2022-12-24T12:58:00;17.99;69.31
69464;DHT22;56665;41.106;16.688;2022-12-24T13:01:15;17.90;69.34
69464;DHT22;56665;41.106;16.688;2022-12-24T13:21:32;17.57;70.29
69464;DHT22;56665;41.106;16.688;2022-12-24T13:24:36;17.45;70.68
69464;DHT22;56665;41.106;16.688;2022-12-24T13:27:40;17.31;70.95
69464;DHT22;56665;41.106;16.688;2022-12-24T13:30:45;17.11;71.02
69464;DHT22;56665;41.106;16.688;2022-12-24T13:33:52;17.17;71.17
69464;DHT22;56665;41.106;16.688;2022-12-24T13:37:02;17.13;70.37
69464;DHT22;56665;41.106;16.688;2022-12-24T13:43:12;17.21;70.62
69464;DHT22;56665;41.106;16.688;2022-12-24T13:47:14;17.08;70.05
69464;DHT22;56665;41.106;16.688;2022-12-24T13:50:23;16.96;69.76
69464;DHT22;56665;41.106;16.688;2022-12-24T13:53:40;16.95;69.80
69464;DHT22;56665;41.106;16.688;2022-12-24T13:56:45;16.83;69.95
69464;DHT22;56665;41.106;16.688;2022-12-24T13:59:57;16.82;71.58
69464;DHT22;56665;41.106;16.688;2022-12-24T14:06:27;16.42;70.46
69464;DHT22;56665;41.106;16.688;2022-12-24T14:09:34;16.45;70.86
69464;DHT22;56665;41.106;16.688;2022-12-24T14:12:48;16.41;69.81
69464;DHT22;56665;41.106;16.688;2022-12-24T14:19:38;16.42;72.18
69464;DHT22;56665;41.106;16.688;2022-12-24T14:22:44;16.44;71.29
69464;DHT22;56665;41.106;16.688;2022-12-24T14:25:49;16.37;71.51
69464;DHT22;56665;41.106;16.688;2022-12-24T14:28:57;16.35;72.42
69464;DHT22;56665;41.106;16.688;2022-12-24T14:32:13;16.31;72.41
69464;DHT22;56665;41.106;16.688;2022-12-24T14:38:27;16.18;71.83
69464;DHT22;56665;41.106;16.688;2022-12-24T14:45:36;16.04;72.52
69464;DHT22;56665;41.106;16.688;2022-12-24T14:49:01;16.03;72.10
69464;DHT22;56665;41.106;16.688;2022-12-24T14:52:24;15.96;72.35
69464;DHT22;56665;41.106;16.688;2022-12-24T14:55:41;15.91;72.86
69464;DHT22;56665;41.106;16.688;2022-12-24T14:58:46;15.81;73.04
69464;DHT22;56665;41.106;16.688;2022-12-24T15:01:51;15.74;73.67
69464;DHT22;56665;41.106;16.688;2022-12-24T15:05:16;15.70;73.51
69464;DHT22;56665;41.106;16.688;2022-12-24T15:08:31;15.63;73.10
69464;DHT22;56665;41.106;16.688;2022-12-24T15:11:35;15.62;73.91
69464;DHT22;56665;41.106;16.688;2022-12-24T15:14:42;15.53;73.96
69464;DHT22;56665;41.106;16.688;2022-12-24T15:17:47;15.49;74.15
69464;DHT22;56665;41.106;16.688;2022-12-24T15:20:53;15.46;74.65
69464;DHT22;56665;41.106;16.688;2022-12-24T15:23:57;15.38;74.75
69464;DHT22;56665;41.106;16.688;2022-12-24T15:27:17;15.29;75.30
69464;DHT22;56665;41.106;16.688;2022-12-24T15:30:27;15.20;75.09
69464;DHT22;56665;41.106;16.688;2022-12-24T15:33:35;15.15;75.88
69464;DHT22;56665;41.106;16.688;2022-12-24T15:36:39;15.12;76.15
69464;DHT22;56665;41.106;16.688;2022-12-24T15:39:50;15.14;75.99
69464;DHT22;56665;41.106;16.688;2022-12-24T15:42:55;15.15;76.11
69464;DHT22;56665;41.106;16.688;2022-12-24T15:45:59;15.12;76.07
69464;DHT22;56665;41.106;16.688;2022-12-24T15:49:03;15.05;76.76
69464;DHT22;56665;41.106;16.688;2022-12-24T15:52:10;14.98;77.30
69464;DHT22;56665;41.106;16.688;2022-12-24T15:55:37;14.91;77.96
69464;DHT22;56665;41.106;16.688;2022-12-24T15:58:43;14.81;78.80
69464;DHT22;56665;41.106;16.688;2022-12-24T16:01:48;14.67;80.74
69464;DHT22;56665;41.106;16.688;2022-12-24T16:04:52;14.61;79.83
69464;DHT22;56665;41.106;16.688;2022-12-24T16:14:23;14.34;80.17
69464;DHT22;56665;41.106;16.688;2022-12-24T16:17:28;14.30;80.31
69464;DHT22;56665;41.106;16.688;2022-12-24T16:20:34;14.27;80.22
69464;DHT22;56665;41.106;16.688;2022-12-24T16:23:45;14.27;80.47
69464;DHT22;56665;41.106;16.688;2022-12-24T16:26:53;14.27;80.32
69464;DHT22;56665;41.106;16.688;2022-12-24T16:29:58;14.26;80.40
69464;DHT22;56665;41.106;16.688;2022-12-24T16:33:02;14.25;80.10
69464;DHT22;56665;41.106;16.688;2022-12-24T16:36:06;14.23;80.04
69464;DHT22;56665;41.106;16.688;2022-12-24T16:39:16;14.20;80.11
69464;DHT22;56665;41.106;16.688;2022-12-24T16:42:26;14.15;80.13
69464;DHT22;56665;41.106;16.688;2022-12-24T16:45:50;14.06;80.41
69464;DHT22;56665;41.106;16.688;2022-12-24T16:48:54;14.01;80.70
69464;DHT22;56665;41.106;16.688;2022-12-24T16:51:57;13.96;81.02
69464;DHT22;56665;41.106;16.688;2022-12-24T16:55:01;13.95;80.76
69464;DHT22;56665;41.106;16.688;2022-12-24T16:58:11;13.85;80.58
69464;DHT22;56665;41.106;16.688;2022-12-24T17:01:16;13.78;80.87
69464;DHT22;56665;41.106;16.688;2022-12-24T17:04:21;13.67;81.03
69464;DHT22;56665;41.106;16.688;2022-12-24T17:07:25;13.57;81.32
69464;DHT22;56665;41.106;16.688;2022-12-24T17:10:28;13.44;81.66
69464;DHT22;56665;41.106;16.688;2022-12-24T17:13:33;13.38;81.87
69464;DHT22;56665;41.106;16.688;2022-12-24T17:16:37;13.24;82.05
69464;DHT22;56665;41.106;16.688;2022-12-24T17:19:40;13.19;82.51
69464;DHT22;56665;41.106;16.688;2022-12-24T17:22:44;13.13;82.42
69464;DHT22;56665;41.106;16.688;2022-12-24T17:25:51;13.03;82.72
69464;DHT22;56665;41.106;16.688;2022-12-24T17:28:55;12.96;83.08
69464;DHT22;56665;41.106;16.688;2022-12-24T17:31:59;12.96;83.15
69464;DHT22;56665;41.106;16.688;2022-12-24T17:35:03;12.98;83.44
69464;DHT22;56665;41.106;16.688;2022-12-24T17:38:11;12.91;83.40
69464;DHT22;56665;41.106;16.688;2022-12-24T17:41:17;12.91;83.34
69464;DHT22;56665;41.106;16.688;2022-12-24T17:44:22;12.85;83.46
69464;DHT22;56665;41.106;16.688;2022-12-24T17:47:27;12.83;83.62
69464;DHT22;56665;41.106;16.688;2022-12-24T17:50:31;12.82;83.86
69464;DHT22;56665;41.106;16.688;2022-12-24T17:53:37;12.80;83.97
69464;DHT22;56665;41.106;16.688;2022-12-24T17:56:40;12.75;84.04
69464;DHT22;56665;41.106;16.688;2022-12-24T17:59:44;12.72;84.15
69464;DHT22;56665;41.106;16.688;2022-12-24T18:02:48;12.72;84.18
69464;DHT22;56665;41.106;16.688;2022-12-24T18:05:53;12.69;84.64
69464;DHT22;56665;41.106;16.688;2022-12-24T18:08:57;12.69;84.42
69464;DHT22;56665;41.106;16.688;2022-12-24T18:12:01;12.71;84.51
69464;DHT22;56665;41.106;16.688;2022-12-24T18:15:06;12.71;84.66
69464;DHT22;56665;41.106;16.688;2022-12-24T18:18:09;12.67;84.83
69464;DHT22;56665;41.106;16.688;2022-12-24T18:21:15;12.64;84.93
69464;DHT22;56665;41.106;16.688;2022-12-24T18:24:20;12.62;84.95
69464;DHT22;56665;41.106;16.688;2022-12-24T18:27:25;12.61;85.13
69464;DHT22;56665;41.106;16.688;2022-12-24T18:30:28;12.58;85.33
69464;DHT22;56665;41.106;16.688;2022-12-24T18:33:33;12.58;85.63
69464;DHT22;56665;41.106;16.688;2022-12-24T18:36:37;12.58;85.83
69464;DHT22;56665;41.106;16.688;2022-12-24T18:39:43;12.61;86.01
69464;DHT22;56665;41.106;16.688;2022-12-24T18:42:46;12.61;85.92
69464;DHT22;56665;41.106;16.688;2022-12-24T18:45:50;12.62;85.96
69464;DHT22;56665;41.106;16.688;2022-12-24T18:48:55;12.62;85.97
69464;DHT22;56665;41.106;16.688;2022-12-24T18:52:02;12.59;86.06
69464;DHT22;56665;41.106;16.688;2022-12-24T18:55:09;12.59;86.09
69464;DHT22;56665;41.106;16.688;2022-12-24T18:58:12;12.59;86.05
69464;DHT22;56665;41.106;16.688;2022-12-24T19:01:24;12.61;86.11
69464;DHT22;56665;41.106;16.688;2022-12-24T19:04:28;12.62;86.08
69464;DHT22;56665;41.106;16.688;2022-12-24T19:07:31;12.62;86.07
69464;DHT22;56665;41.106;16.688;2022-12-24T19:10:36;12.59;86.05
69464;DHT22;56665;41.106;16.688;2022-12-24T19:13:46;12.62;86.23
69464;DHT22;56665;41.106;16.688;2022-12-24T19:16:50;12.65;86.37
69464;DHT22;56665;41.106;16.688;2022-12-24T19:19:53;12.71;86.26
69464;DHT22;56665;41.106;16.688;2022-12-24T19:22:57;12.78;86.06
69464;DHT22;56665;41.106;16.688;2022-12-24T19:26:02;12.85;85.77
69464;DHT22;56665;41.106;16.688;2022-12-24T19:29:06;12.85;85.63
69464;DHT22;56665;41.106;16.688;2022-12-24T19:32:10;12.85;85.11
69464;DHT22;56665;41.106;16.688;2022-12-24T19:35:13;12.88;84.97
69464;DHT22;56665;41.106;16.688;2022-12-24T19:38:17;12.83;84.88
69464;DHT22;56665;41.106;16.688;2022-12-24T19:41:26;12.82;84.84
69464;DHT22;56665;41.106;16.688;2022-12-24T19:44:30;12.75;84.95
69464;DHT22;56665;41.106;16.688;2022-12-24T19:47:34;12.69;85.13
69464;DHT22;56665;41.106;16.688;2022-12-24T19:50:38;12.68;85.52
69464;DHT22;56665;41.106;16.688;2022-12-24T19:53:45;12.69;85.49
69464;DHT22;56665;41.106;16.688;2022-12-24T19:56:49;12.72;85.35
69464;DHT22;56665;41.106;16.688;2022-12-24T19:59:54;12.75;85.38
69464;DHT22;56665;41.106;16.688;2022-12-24T20:02:58;12.75;85.26
69464;DHT22;56665;41.106;16.688;2022-12-24T20:06:03;12.76;85.31
69464;DHT22;56665;41.106;16.688;2022-12-24T20:09:07;12.79;85.42
69464;DHT22;56665;41.106;16.688;2022-12-24T20:12:11;12.76;85.46
69464;DHT22;56665;41.106;16.688;2022-12-24T20:15:14;12.72;85.39
69464;DHT22;56665;41.106;16.688;2022-12-24T20:18:19;12.71;85.35
69464;DHT22;56665;41.106;16.688;2022-12-24T20:21:24;12.64;85.48
69464;DHT22;56665;41.106;16.688;2022-12-24T20:24:28;12.62;85.64
69464;DHT22;56665;41.106;16.688;2022-12-24T20:27:31;12.64;85.54
69464;DHT22;56665;41.106;16.688;2022-12-24T20:30:35;12.62;85.55
69464;DHT22;56665;41.106;16.688;2022-12-24T20:33:40;12.61;85.70
69464;DHT22;56665;41.106;16.688;2022-12-24T20:36:45;12.57;85.61
69464;DHT22;56665;41.106;16.688;2022-12-24T20:39:49;12.51;85.78
69464;DHT22;56665;41.106;16.688;2022-12-24T20:42:52;12.48;85.86
69464;DHT22;56665;41.106;16.688;2022-12-24T20:45:56;12.47;86.02
69464;DHT22;56665;41.106;16.688;2022-12-24T20:49:00;12.48;86.12
69464;DHT22;56665;41.106;16.688;2022-12-24T20:52:06;12.49;86.33
69464;DHT22;56665;41.106;16.688;2022-12-24T20:55:10;12.51;86.45